createdAt,value
2019-03-29T00:02:19.127Z,0.80
2019-03-29T00:04:45.664Z,1.02
2019-03-29T00:07:11.908Z,0.75
2019-03-29T00:09:38.148Z,1.00
2019-03-29T00:12:05.003Z,1.12
2019-03-29T00:14:31.416Z,1.47
2019-03-29T00:16:57.757Z,0.88
2019-03-29T00:19:24.104Z,1.00
2019-03-29T00:21:50.429Z,1.02
2019-03-29T00:24:16.576Z,1.05
2019-03-29T00:26:43.041Z,1.10
2019-03-29T00:29:09.269Z,1.05
2019-03-29T00:31:35.704Z,1.10
2019-03-29T00:34:02.297Z,1.37
2019-03-29T00:36:28.524Z,0.93
2019-03-29T00:38:54.765Z,1.40
2019-03-29T00:41:21.109Z,1.10
2019-03-29T00:43:47.449Z,1.40
2019-03-29T00:46:13.789Z,0.90
2019-03-29T00:48:40.042Z,1.35
2019-03-29T00:51:06.277Z,1.40
2019-03-29T00:53:32.634Z,1.00
2019-03-29T00:55:58.913Z,1.15
2019-03-29T00:58:25.148Z,1.25
2019-03-29T01:00:51.393Z,1.20
2019-03-29T01:03:17.835Z,1.27
2019-03-29T01:05:44.277Z,1.30
2019-03-29T01:08:10.895Z,1.40
2019-03-29T01:10:37.487Z,1.42
2019-03-29T01:13:04.013Z,1.15
2019-03-29T01:15:30.464Z,1.37
2019-03-29T01:17:56.740Z,1.40
2019-03-29T01:20:22.988Z,1.30
2019-03-29T01:22:49.430Z,1.40
2019-03-29T01:25:15.877Z,1.20
2019-03-29T01:27:42.121Z,1.42
2019-03-29T01:30:08.660Z,1.80
2019-03-29T01:32:35.190Z,1.70
2019-03-29T01:35:02.808Z,1.60
2019-03-29T01:37:29.056Z,1.60
2019-03-29T01:39:55.440Z,1.50
2019-03-29T01:42:21.878Z,1.25
2019-03-29T01:44:48.413Z,1.52
2019-03-29T01:47:14.669Z,1.60
2019-03-29T01:49:41.879Z,1.50
2019-03-29T01:52:08.358Z,1.50
2019-03-29T01:54:34.913Z,1.92
2019-03-29T01:57:01.125Z,1.57
2019-03-29T01:59:27.368Z,1.85
2019-03-29T02:01:54.943Z,1.72
2019-03-29T02:04:21.469Z,1.75
2019-03-29T02:06:47.821Z,1.75
2019-03-29T02:09:14.196Z,1.60
2019-03-29T02:11:41.062Z,1.82
2019-03-29T02:14:07.404Z,1.72
2019-03-29T02:16:33.976Z,1.60
2019-03-29T02:19:00.312Z,1.82
2019-03-29T02:21:26.657Z,1.70
2019-03-29T02:23:53.096Z,1.92
2019-03-29T02:26:19.549Z,1.75
2019-03-29T02:28:46.020Z,1.67
2019-03-29T02:31:12.524Z,1.70
2019-03-29T02:33:39.051Z,2.00
2019-03-29T02:36:06.505Z,2.00
2019-03-29T02:38:32.943Z,2.15
2019-03-29T02:40:59.184Z,1.92
2019-03-29T02:43:25.426Z,2.02
2019-03-29T02:45:51.893Z,1.75
2019-03-29T02:48:18.331Z,2.08
2019-03-29T02:50:44.537Z,1.70
2019-03-29T02:53:11.105Z,1.72
2019-03-29T02:55:37.446Z,1.90
2019-03-29T02:58:04.941Z,2.12
2019-03-29T03:00:31.574Z,1.65
2019-03-29T03:02:57.802Z,2.15
2019-03-29T03:05:24.146Z,1.95
2019-03-29T03:07:50.595Z,2.05
2019-03-29T03:10:17.225Z,2.33
2019-03-29T03:12:43.662Z,2.30
2019-03-29T03:15:10.533Z,1.87
2019-03-29T03:17:37.194Z,1.87
2019-03-29T03:20:09.208Z,1.98
2019-03-29T03:22:35.666Z,2.35
2019-03-29T03:25:02.769Z,2.00
2019-03-29T03:27:29.095Z,2.00
2019-03-29T03:29:55.765Z,2.55
2019-03-29T03:32:22.174Z,2.40
2019-03-29T03:34:48.646Z,1.87
2019-03-29T03:37:15.018Z,2.17
2019-03-29T03:39:41.349Z,2.08
2019-03-29T03:42:07.797Z,2.25
2019-03-29T03:44:34.248Z,1.98
2019-03-29T03:47:00.657Z,1.65
2019-03-29T03:49:27.007Z,2.08
2019-03-29T03:51:53.650Z,1.80
2019-03-29T03:54:20.661Z,2.00
2019-03-29T03:56:49.408Z,2.20
2019-03-29T03:59:16.042Z,2.02
2019-03-29T04:01:42.471Z,2.10
2019-03-29T04:04:08.821Z,2.30
2019-03-29T04:06:35.172Z,1.95
2019-03-29T04:09:01.414Z,1.92
2019-03-29T04:11:27.783Z,2.10
2019-03-29T04:13:54.222Z,1.87
2019-03-29T04:16:20.467Z,2.22
2019-03-29T04:18:46.800Z,1.98
2019-03-29T04:21:13.200Z,2.50
2019-03-29T04:23:39.729Z,2.60
2019-03-29T04:26:06.184Z,1.95
2019-03-29T04:28:32.533Z,2.27
2019-03-29T04:30:58.957Z,2.30
2019-03-29T04:33:25.213Z,2.00
2019-03-29T04:35:51.648Z,2.67
2019-03-29T04:38:18.080Z,2.42
2019-03-29T04:40:44.329Z,2.30
2019-03-29T04:43:10.777Z,2.30
2019-03-29T04:45:37.116Z,2.22
2019-03-29T04:48:03.582Z,2.50
2019-03-29T04:50:30.242Z,2.30
2019-03-29T04:52:56.671Z,2.50
2019-03-29T04:55:23.108Z,2.47
2019-03-29T04:57:49.456Z,2.50
2019-03-29T05:00:16.501Z,2.50
2019-03-29T05:02:42.969Z,2.60
2019-03-29T05:05:09.407Z,2.30
2019-03-29T05:07:37.031Z,2.67
2019-03-29T05:10:19.987Z,2.58
2019-03-29T05:12:33.911Z,2.27
2019-03-29T05:15:00.366Z,2.80
2019-03-29T05:17:26.678Z,2.92
2019-03-29T05:19:52.929Z,3.05
2019-03-29T05:22:19.308Z,2.40
2019-03-29T05:24:45.655Z,2.50
2019-03-29T05:27:12.244Z,2.70
2019-03-29T05:29:38.567Z,2.50
2019-03-29T05:32:04.913Z,2.52
2019-03-29T05:34:31.352Z,2.98
2019-03-29T05:36:58.582Z,2.83
2019-03-29T05:39:24.826Z,2.90
2019-03-29T05:41:51.280Z,2.33
2019-03-29T05:44:17.561Z,2.12
2019-03-29T05:46:44.001Z,2.52
2019-03-29T05:49:10.384Z,2.98
2019-03-29T05:51:36.724Z,2.58
2019-03-29T05:54:04.541Z,2.58
2019-03-29T05:56:31.000Z,2.85
2019-03-29T05:58:57.421Z,2.42
2019-03-29T06:01:23.767Z,2.90
2019-03-29T06:03:50.139Z,2.85
2019-03-29T06:06:16.588Z,2.52
2019-03-29T06:08:42.840Z,2.55
2019-03-29T06:11:09.308Z,2.90
2019-03-29T06:13:35.664Z,2.33
2019-03-29T06:16:02.100Z,2.62
2019-03-29T06:18:28.469Z,2.98
2019-03-29T06:20:54.860Z,2.75
2019-03-29T06:23:21.215Z,2.87
2019-03-29T06:25:47.689Z,2.60
2019-03-29T06:28:14.021Z,2.62
2019-03-29T06:30:40.256Z,2.70
2019-03-29T06:33:06.753Z,2.12
2019-03-29T06:35:36.777Z,2.40
2019-03-29T06:38:04.521Z,2.30
2019-03-29T06:40:30.767Z,2.10
2019-03-29T06:42:57.212Z,2.55
2019-03-29T06:45:24.313Z,2.40
2019-03-29T06:47:50.845Z,2.65
2019-03-29T06:50:17.177Z,2.50
2019-03-29T06:52:43.508Z,2.35
2019-03-29T06:55:09.981Z,2.40
2019-03-29T06:57:36.326Z,2.70
2019-03-29T07:00:04.074Z,2.47
2019-03-29T07:02:30.605Z,2.95
2019-03-29T07:04:56.936Z,2.80
2019-03-29T07:07:23.294Z,2.40
2019-03-29T07:09:49.716Z,2.05
2019-03-29T07:12:15.953Z,3.00
2019-03-29T07:14:42.201Z,2.47
2019-03-29T07:17:10.351Z,2.62
2019-03-29T07:19:36.785Z,2.30
2019-03-29T07:22:03.137Z,2.35
2019-03-29T07:24:29.600Z,2.40
2019-03-29T07:26:55.840Z,2.65
2019-03-29T07:29:22.180Z,2.35
2019-03-29T07:31:48.433Z,2.85
2019-03-29T07:34:14.784Z,2.47
2019-03-29T07:36:41.040Z,2.72
2019-03-29T07:39:07.310Z,3.08
2019-03-29T07:41:33.756Z,2.90
2019-03-29T07:44:02.360Z,2.37
2019-03-29T07:46:28.811Z,2.70
2019-03-29T07:48:55.132Z,2.92
2019-03-29T07:51:21.479Z,2.65
2019-03-29T07:53:48.006Z,2.72
2019-03-29T07:56:14.243Z,2.90
2019-03-29T07:58:40.484Z,2.52
2019-03-29T08:01:08.305Z,2.80
2019-03-29T08:03:34.786Z,2.60
2019-03-29T08:06:01.229Z,2.42
2019-03-29T08:08:32.311Z,2.85
2019-03-29T08:10:55.758Z,2.83
2019-03-29T08:13:22.072Z,3.15
2019-03-29T08:15:48.418Z,2.30
2019-03-29T08:18:14.770Z,2.90
2019-03-29T08:20:44.155Z,3.10
2019-03-29T08:23:09.284Z,2.55
2019-03-29T08:25:35.632Z,2.52
2019-03-29T08:28:02.089Z,2.87
2019-03-29T08:30:28.821Z,3.08
2019-03-29T08:32:55.153Z,2.40
2019-03-29T08:35:21.492Z,2.27
2019-03-29T08:37:48.005Z,2.60
2019-03-29T08:40:14.448Z,2.67
2019-03-29T08:42:40.893Z,2.95
2019-03-29T08:45:07.649Z,2.70
2019-03-29T08:47:34.947Z,2.80
2019-03-29T08:50:01.173Z,2.52
2019-03-29T08:52:27.408Z,2.50
2019-03-29T08:54:53.653Z,2.17
2019-03-29T08:57:20.005Z,2.60
2019-03-29T08:59:46.561Z,2.80
2019-03-29T09:02:12.995Z,2.45
2019-03-29T09:04:39.621Z,2.77
2019-03-29T09:07:06.032Z,2.40
2019-03-29T09:09:32.336Z,2.47
2019-03-29T09:11:58.694Z,2.60
2019-03-29T09:14:25.336Z,2.58
2019-03-29T09:16:51.760Z,2.77
2019-03-29T09:19:18.110Z,2.70
2019-03-29T09:21:44.747Z,2.67
2019-03-29T09:24:21.931Z,2.40
2019-03-29T09:26:39.429Z,2.65
2019-03-29T09:29:06.225Z,2.83
2019-03-29T09:31:32.461Z,2.77
2019-03-29T09:33:58.868Z,2.77
2019-03-29T09:36:25.341Z,2.80
2019-03-29T09:38:51.773Z,2.65
2019-03-29T09:41:18.112Z,3.17
2019-03-29T09:43:44.806Z,2.98
2019-03-29T09:46:11.123Z,3.00
2019-03-29T09:48:37.616Z,3.20
2019-03-29T09:51:04.082Z,2.80
2019-03-29T09:53:30.420Z,2.80
2019-03-29T09:55:56.770Z,3.40
2019-03-29T09:58:23.117Z,2.90
2019-03-29T10:00:49.558Z,3.20
2019-03-29T10:03:15.801Z,3.20
2019-03-29T10:05:42.241Z,3.10
2019-03-29T10:08:08.484Z,2.98
2019-03-29T10:10:34.978Z,3.20
2019-03-29T10:13:01.517Z,3.45
2019-03-29T10:15:27.751Z,3.52
2019-03-29T10:17:54.099Z,3.17
2019-03-29T10:20:20.461Z,3.50
2019-03-29T10:22:46.810Z,4.30
2019-03-29T10:25:19.507Z,3.10
2019-03-29T10:27:41.604Z,3.55
2019-03-29T10:30:08.343Z,3.12
2019-03-29T10:32:34.692Z,3.60
2019-03-29T10:35:01.489Z,3.50
2019-03-29T10:37:27.841Z,3.75
2019-03-29T10:39:54.322Z,3.47
2019-03-29T10:42:20.869Z,4.10
2019-03-29T10:44:49.412Z,3.95
2019-03-29T10:47:15.242Z,3.67
2019-03-29T10:49:41.619Z,3.90
2019-03-29T10:52:08.068Z,3.75
2019-03-29T10:54:34.399Z,3.85
2019-03-29T10:57:00.895Z,3.52
2019-03-29T10:59:28.126Z,4.12
2019-03-29T11:01:54.484Z,3.65
2019-03-29T11:04:20.867Z,4.30
2019-03-29T11:06:47.295Z,3.92
2019-03-29T11:09:13.637Z,3.62
2019-03-29T11:11:40.198Z,4.05
2019-03-29T11:14:06.625Z,4.20
2019-03-29T11:16:33.064Z,3.70
2019-03-29T11:18:59.617Z,3.65
2019-03-29T11:21:26.053Z,3.58
2019-03-29T11:23:52.492Z,3.85
2019-03-29T11:26:19.149Z,3.70
2019-03-29T11:28:45.506Z,3.87
2019-03-29T11:31:11.853Z,3.50
2019-03-29T11:33:38.521Z,3.58
2019-03-29T11:36:04.948Z,3.65
2019-03-29T11:38:31.216Z,3.90
2019-03-29T11:40:57.877Z,3.70
2019-03-29T11:43:27.064Z,3.55
2019-03-29T11:45:52.444Z,3.65
2019-03-29T11:48:18.946Z,4.25
2019-03-29T11:50:45.481Z,3.70
2019-03-29T11:53:11.830Z,3.25
2019-03-29T11:55:38.398Z,3.40
2019-03-29T11:58:04.869Z,2.87
2019-03-29T12:00:32.526Z,3.20
2019-03-29T12:02:59.001Z,3.40
2019-03-29T12:05:25.349Z,3.62
2019-03-29T12:07:51.888Z,3.20
2019-03-29T12:10:18.568Z,3.22
2019-03-29T12:12:44.873Z,3.08
2019-03-29T12:15:11.315Z,2.55
2019-03-29T12:17:37.669Z,3.33
2019-03-29T12:20:05.417Z,2.92
2019-03-29T12:22:31.848Z,2.50
2019-03-29T12:24:58.218Z,2.92
2019-03-29T12:27:24.442Z,3.05
2019-03-29T12:29:50.688Z,3.10
2019-03-29T12:32:17.224Z,2.58
2019-03-29T12:34:43.452Z,2.65
2019-03-29T12:37:09.895Z,2.90
2019-03-29T12:39:36.381Z,2.85
2019-03-29T12:42:02.804Z,2.90
2019-03-29T12:44:29.148Z,2.67
2019-03-29T12:46:55.712Z,2.80
2019-03-29T12:49:22.136Z,2.50
2019-03-29T12:51:48.443Z,2.70
2019-03-29T12:54:15.079Z,3.08
2019-03-29T12:56:41.434Z,2.80
2019-03-29T12:59:08.049Z,3.45
2019-03-29T13:01:39.876Z,2.70
2019-03-29T13:04:02.852Z,2.85
2019-03-29T13:06:29.296Z,2.50
2019-03-29T13:08:55.698Z,2.35
2019-03-29T13:11:22.137Z,2.87
2019-03-29T13:13:49.800Z,3.05
2019-03-29T13:16:16.257Z,3.10
2019-03-29T13:18:42.580Z,2.83
2019-03-29T13:21:08.923Z,3.00
2019-03-29T13:23:35.478Z,2.87
2019-03-29T13:26:01.811Z,2.70
2019-03-29T13:28:28.249Z,2.50
2019-03-29T13:30:54.666Z,3.00
2019-03-29T13:33:21.089Z,3.10
2019-03-29T13:35:47.547Z,2.87
2019-03-29T13:38:13.905Z,2.60
2019-03-29T13:40:40.253Z,2.55
2019-03-29T13:43:06.581Z,3.00
2019-03-29T13:45:33.031Z,2.40
2019-03-29T13:47:59.384Z,3.20
2019-03-29T13:50:25.839Z,2.35
2019-03-29T13:52:52.205Z,2.80
2019-03-29T13:55:18.541Z,2.95
2019-03-29T13:57:44.880Z,2.40
2019-03-29T14:00:13.536Z,2.85
2019-03-29T14:02:39.968Z,2.30
2019-03-29T14:05:06.601Z,2.90
2019-03-29T14:07:33.073Z,2.58
2019-03-29T14:09:59.381Z,2.65
2019-03-29T14:12:25.621Z,2.45
2019-03-29T14:14:51.971Z,2.75
2019-03-29T14:17:18.313Z,2.25
2019-03-29T14:19:44.645Z,2.72
2019-03-29T14:22:11.008Z,2.42
2019-03-29T14:24:37.345Z,2.25
2019-03-29T14:27:03.692Z,2.60
2019-03-29T14:29:30.278Z,2.30
2019-03-29T14:31:56.501Z,2.08
2019-03-29T14:34:22.850Z,2.33
2019-03-29T14:36:49.281Z,2.40
2019-03-29T14:39:15.513Z,2.58
2019-03-29T14:41:41.848Z,2.70
2019-03-29T14:44:08.310Z,2.75
2019-03-29T14:46:34.633Z,2.60
2019-03-29T14:49:01.069Z,2.98
2019-03-29T14:51:27.593Z,2.20
2019-03-29T14:53:53.824Z,2.62
2019-03-29T14:56:20.190Z,2.67
2019-03-29T14:58:46.581Z,2.60
2019-03-29T15:01:13.031Z,2.95
2019-03-29T15:03:39.365Z,2.92
2019-03-29T15:06:05.842Z,2.65
2019-03-29T15:08:32.330Z,2.30
2019-03-29T15:10:58.638Z,2.70
2019-03-29T15:13:25.005Z,2.70
2019-03-29T15:15:53.541Z,2.92
2019-03-29T15:18:19.578Z,2.95
2019-03-29T15:20:53.179Z,2.67
2019-03-29T15:23:14.266Z,2.62
2019-03-29T15:25:40.938Z,3.10
2019-03-29T15:28:07.541Z,2.83
2019-03-29T15:30:33.886Z,3.10
2019-03-29T15:33:00.121Z,2.52
2019-03-29T15:35:26.386Z,2.75
2019-03-29T15:37:52.751Z,2.80
2019-03-29T15:40:19.145Z,2.60
2019-03-29T15:42:45.725Z,2.95
2019-03-29T15:45:20.311Z,3.12
2019-03-29T15:47:41.011Z,2.77
2019-03-29T15:50:07.725Z,2.77
2019-03-29T15:52:33.956Z,2.25
2019-03-29T15:55:00.382Z,2.83
2019-03-29T15:57:26.613Z,2.45
2019-03-29T15:59:52.853Z,2.60
2019-03-29T16:02:19.097Z,2.30
2019-03-29T16:04:45.566Z,2.90
2019-03-29T16:07:12.030Z,2.10
2019-03-29T16:09:38.482Z,2.67
2019-03-29T16:12:04.928Z,2.27
2019-03-29T16:14:31.144Z,2.33
2019-03-29T16:16:57.608Z,2.33
2019-03-29T16:19:24.053Z,2.50
2019-03-29T16:21:50.497Z,2.45
2019-03-29T16:24:16.936Z,2.10
2019-03-29T16:26:43.548Z,2.27
2019-03-29T16:29:10.012Z,2.37
2019-03-29T16:31:36.286Z,2.22
2019-03-29T16:34:02.879Z,2.60
2019-03-29T16:36:29.176Z,2.17
2019-03-29T16:38:55.532Z,2.45
2019-03-29T16:41:22.174Z,2.40
2019-03-29T16:43:48.508Z,2.40
2019-03-29T16:46:14.925Z,2.70
2019-03-29T16:48:41.506Z,2.60
2019-03-29T16:51:07.828Z,2.33
2019-03-29T16:53:34.176Z,2.10
2019-03-29T16:56:00.870Z,2.12
2019-03-29T16:58:27.207Z,2.47
2019-03-29T17:00:53.450Z,2.42
2019-03-29T17:03:19.968Z,2.27
2019-03-29T17:05:46.421Z,2.12
2019-03-29T17:08:12.861Z,2.20
2019-03-29T17:10:39.242Z,2.50
2019-03-29T17:13:05.581Z,2.40
2019-03-29T17:15:31.932Z,2.60
2019-03-29T17:17:58.385Z,2.33
2019-03-29T17:20:24.759Z,2.87
2019-03-29T17:22:51.084Z,2.60
2019-03-29T17:25:17.624Z,2.70
2019-03-29T17:27:43.972Z,2.60
2019-03-29T17:30:12.820Z,2.65
2019-03-29T17:32:39.285Z,2.77
2019-03-29T17:35:05.813Z,2.47
2019-03-29T17:37:31.968Z,3.20
2019-03-29T17:39:58.418Z,3.02
2019-03-29T17:42:24.837Z,2.70
2019-03-29T17:44:51.093Z,3.17
2019-03-29T17:47:17.550Z,2.90
2019-03-29T17:49:43.982Z,3.12
2019-03-29T17:52:10.461Z,2.77
2019-03-29T17:54:37.036Z,3.22
2019-03-29T17:57:03.283Z,3.05
2019-03-29T17:59:29.604Z,3.20
2019-03-29T18:02:08.777Z,3.58
2019-03-29T18:04:24.273Z,3.10
2019-03-29T18:06:52.508Z,2.90
2019-03-29T18:09:18.758Z,3.40
2019-03-29T18:11:45.138Z,3.08
2019-03-29T18:14:11.456Z,2.90
2019-03-29T18:16:38.020Z,2.92
2019-03-29T18:19:04.357Z,3.15
2019-03-29T18:21:30.788Z,3.60
2019-03-29T18:23:56.982Z,3.58
2019-03-29T18:26:23.409Z,3.22
2019-03-29T18:28:49.665Z,3.17
2019-03-29T18:31:16.312Z,2.80
2019-03-29T18:33:42.853Z,2.98
2019-03-29T18:36:09.402Z,2.80
2019-03-29T18:38:37.537Z,3.15
2019-03-29T18:41:03.874Z,3.12
2019-03-29T18:43:30.318Z,2.52
2019-03-29T18:45:56.877Z,2.90
2019-03-29T18:48:23.428Z,2.80
2019-03-29T18:50:49.778Z,3.08
2019-03-29T18:53:16.126Z,2.72
2019-03-29T18:55:42.553Z,2.70
2019-03-29T18:58:08.953Z,2.85
2019-03-29T19:00:35.526Z,2.95
2019-03-29T19:03:02.454Z,3.02
2019-03-29T19:05:28.992Z,3.00
2019-03-29T19:07:55.384Z,2.95
2019-03-29T19:10:21.813Z,2.65
2019-03-29T19:12:48.261Z,3.00
2019-03-29T19:15:14.622Z,2.92
2019-03-29T19:17:40.860Z,3.27
2019-03-29T19:20:10.082Z,3.27
2019-03-29T19:22:35.499Z,3.08
2019-03-29T19:25:03.004Z,2.65
2019-03-29T19:27:29.350Z,2.95
2019-03-29T19:29:55.776Z,2.98
2019-03-29T19:32:21.997Z,2.80
2019-03-29T19:34:48.242Z,2.90
2019-03-29T19:37:14.487Z,3.10
2019-03-29T19:39:40.933Z,3.15
2019-03-29T19:42:07.389Z,2.92
2019-03-29T19:44:33.736Z,2.85
2019-03-29T19:47:12.854Z,2.67
2019-03-29T19:49:28.145Z,3.70
2019-03-29T19:51:54.554Z,3.35
2019-03-29T19:54:20.938Z,3.17
2019-03-29T19:56:47.247Z,3.12
2019-03-29T19:59:14.232Z,3.30
2019-03-29T20:01:40.692Z,3.35
2019-03-29T20:04:09.657Z,3.20
2019-03-29T20:06:35.301Z,2.80
2019-03-29T20:09:01.729Z,2.90
2019-03-29T20:11:28.070Z,3.60
2019-03-29T20:13:54.557Z,2.80
2019-03-29T20:16:20.987Z,2.92
2019-03-29T20:18:47.336Z,3.22
2019-03-29T20:21:13.882Z,3.15
2019-03-29T20:23:40.305Z,2.77
2019-03-29T20:26:08.318Z,3.05
2019-03-29T20:28:34.792Z,2.67
2019-03-29T20:31:01.181Z,2.70
2019-03-29T20:33:27.523Z,3.10
2019-03-29T20:35:53.895Z,2.92
2019-03-29T20:38:20.348Z,3.20
2019-03-29T20:40:46.824Z,2.77
2019-03-29T20:43:13.164Z,2.65
2019-03-29T20:45:39.408Z,2.85
2019-03-29T20:48:05.865Z,3.27
2019-03-29T20:50:32.313Z,2.70
2019-03-29T20:52:58.665Z,2.60
2019-03-29T20:55:24.900Z,2.58
2019-03-29T20:57:51.269Z,2.50
2019-03-29T21:00:19.786Z,2.98
2019-03-29T21:02:46.312Z,2.87
2019-03-29T21:05:12.753Z,2.67
2019-03-29T21:07:39.100Z,2.90
2019-03-29T21:10:06.456Z,2.75
2019-03-29T21:12:33.023Z,2.65
2019-03-29T21:14:59.367Z,2.50
2019-03-29T21:17:25.732Z,2.75
2019-03-29T21:19:52.285Z,2.37
2019-03-29T21:22:20.228Z,3.00
2019-03-29T21:24:47.469Z,2.80
2019-03-29T21:27:13.946Z,2.70
2019-03-29T21:29:40.195Z,2.62
2019-03-29T21:32:06.640Z,2.70
2019-03-29T21:34:33.008Z,2.67
2019-03-29T21:36:59.340Z,2.87
2019-03-29T21:39:25.895Z,2.70
2019-03-29T21:41:52.358Z,2.85
2019-03-29T21:44:18.589Z,3.30
2019-03-29T21:46:44.844Z,3.47
2019-03-29T21:49:11.388Z,3.50
2019-03-29T21:51:37.871Z,3.33
2019-03-29T21:54:04.407Z,2.62
2019-03-29T21:56:30.726Z,3.02
2019-03-29T21:58:57.065Z,2.87
2019-03-29T22:01:23.500Z,3.65
2019-03-29T22:03:49.966Z,3.10
2019-03-29T22:06:16.394Z,3.30
2019-03-29T22:08:42.649Z,2.92
2019-03-29T22:11:09.102Z,2.83
2019-03-29T22:13:35.452Z,3.00
2019-03-29T22:16:01.884Z,3.47
2019-03-29T22:18:37.731Z,2.90
2019-03-29T22:20:56.457Z,2.85
2019-03-29T22:23:22.697Z,3.60
2019-03-29T22:25:48.959Z,3.00
2019-03-29T22:28:15.308Z,3.80
2019-03-29T22:30:41.648Z,2.58
2019-03-29T22:33:07.997Z,2.83
2019-03-29T22:35:34.343Z,3.42
2019-03-29T22:38:00.688Z,3.30
2019-03-29T22:40:26.944Z,3.35
2019-03-29T22:42:53.177Z,3.02
2019-03-29T22:45:19.610Z,3.25
2019-03-29T22:47:45.941Z,3.37
2019-03-29T22:50:12.377Z,3.62
2019-03-29T22:52:38.629Z,3.37
2019-03-29T22:55:06.188Z,3.80
2019-03-29T22:57:32.514Z,3.27
2019-03-29T22:59:58.951Z,3.65
2019-03-29T23:02:25.471Z,3.52
2019-03-29T23:04:51.812Z,3.00
2019-03-29T23:07:18.188Z,3.67
2019-03-29T23:09:44.747Z,3.25
2019-03-29T23:12:11.073Z,3.50
2019-03-29T23:14:37.317Z,2.90
2019-03-29T23:17:03.768Z,3.67
2019-03-29T23:19:30.098Z,3.17
2019-03-29T23:21:56.556Z,3.77
2019-03-29T23:24:22.904Z,4.08
2019-03-29T23:26:49.165Z,3.27
2019-03-29T23:29:15.417Z,3.37
2019-03-29T23:31:41.892Z,3.83
2019-03-29T23:34:08.240Z,3.30
2019-03-29T23:36:34.786Z,3.67
2019-03-29T23:39:01.063Z,3.67
2019-03-29T23:41:27.393Z,4.20
2019-03-29T23:43:53.636Z,3.42
2019-03-29T23:46:22.078Z,4.10
2019-03-29T23:48:48.300Z,4.12
2019-03-29T23:51:14.549Z,4.05
2019-03-29T23:53:41.112Z,3.37
2019-03-29T23:56:07.401Z,3.83
2019-03-29T23:58:33.631Z,3.55
